IBE42X LOWW-LEMD
Flight info
| Callsign | IBE42X |
|---|---|
| Flight time | N/A |
| Altitude | 40000 |
| Route | OSPEN DCT ABRUK DCT SETAL DCT DETSA/N0460F390 DCT SUMIR DCT GEKBA DCT VAMTU DCT KOLON DCT GANGU DCT PADKO DCT DIVKO DCT NILDU DCT NENDA N975 ADUXO |
| Aircraft | A333/H-SDE3GHIJ2J3J5M1RVWXY/LB2D1 |
Departure
| Time | 2026-05-06 13:01 |
|---|---|
| Airport | Vienna International Airport (LOWW) |
Arrival
| Time | N/A |
|---|---|
| Airport | Adolfo Suárez Madrid–Barajas Airport (LEMD) |
| Time | Latitude | Longitude | Altitude | Speed | Heading |
|---|---|---|---|---|---|
| 2026-05-06 12:40 | 48.11658 | 16.56446 | 613 ft | 0 kts | 206° |
| 2026-05-06 12:53 | 48.11639 | 16.56432 | 626 ft | 5 kts | 207° |
| 2026-05-06 12:53 | 48.11589 | 16.56403 | 623 ft | 11 kts | 197° |
| 2026-05-06 12:53 | 48.11529 | 16.56347 | 628 ft | 9 kts | 245° |
| 2026-05-06 12:54 | 48.11546 | 16.56241 | 625 ft | 12 kts | 295° |
| 2026-05-06 12:54 | 48.11548 | 16.56234 | 628 ft | 12 kts | 295° |
| 2026-05-06 12:54 | 48.11580 | 16.56134 | 628 ft | 13 kts | 295° |
| 2026-05-06 12:54 | 48.11621 | 16.56008 | 624 ft | 14 kts | 296° |
| 2026-05-06 12:55 | 48.11665 | 16.55873 | 628 ft | 15 kts | 296° |
| 2026-05-06 12:55 | 48.11712 | 16.55730 | 622 ft | 16 kts | 296° |
| 2026-05-06 12:55 | 48.11761 | 16.55578 | 628 ft | 17 kts | 296° |
| 2026-05-06 12:55 | 48.11813 | 16.55418 | 622 ft | 17 kts | 296° |
| 2026-05-06 12:56 | 48.11868 | 16.55252 | 628 ft | 18 kts | 296° |
| 2026-05-06 12:56 | 48.11924 | 16.55078 | 622 ft | 19 kts | 296° |
| 2026-05-06 12:56 | 48.11983 | 16.54900 | 620 ft | 19 kts | 295° |
| 2026-05-06 12:56 | 48.12042 | 16.54714 | 626 ft | 20 kts | 296° |
| 2026-05-06 12:57 | 48.12105 | 16.54522 | 622 ft | 21 kts | 296° |
| 2026-05-06 12:57 | 48.12169 | 16.54324 | 626 ft | 22 kts | 296° |
| 2026-05-06 12:57 | 48.12236 | 16.54120 | 626 ft | 22 kts | 296° |
| 2026-05-06 12:57 | 48.12305 | 16.53909 | 620 ft | 23 kts | 296° |
| 2026-05-06 12:58 | 48.12372 | 16.53702 | 617 ft | 22 kts | 296° |
| 2026-05-06 12:58 | 48.12426 | 16.53533 | 625 ft | 13 kts | 288° |
| 2026-05-06 12:58 | 48.12402 | 16.53446 | 623 ft | 0 kts | 210° |
| 2026-05-06 12:58 | 48.12401 | 16.53445 | 624 ft | 0 kts | 210° |
| 2026-05-06 12:59 | 48.12392 | 16.53437 | 628 ft | 5 kts | 210° |
| 2026-05-06 12:59 | 48.12334 | 16.53393 | 623 ft | 13 kts | 206° |
| 2026-05-06 13:00 | 48.12258 | 16.53416 | 620 ft | 11 kts | 122° |
| 2026-05-06 13:00 | 48.12239 | 16.53468 | 626 ft | 0 kts | 116° |
| 2026-05-06 13:00 | 48.12172 | 16.53671 | 624 ft | 51 kts | 116° |
| 2026-05-06 13:00 | 48.11934 | 16.54400 | 625 ft | 103 kts | 116° |
| 2026-05-06 13:01 | 48.11553 | 16.55578 | 626 ft | 146 kts | 116° |
| 2026-05-06 13:01 | 48.11087 | 16.57034 | 951 ft | 159 kts | 119° |
| 2026-05-06 13:01 | 48.10860 | 16.57771 | 1197 ft | 162 kts | 120° |
| 2026-05-06 13:01 | 48.10341 | 16.59342 | 1567 ft | 176 kts | 124° |
| 2026-05-06 13:02 | 48.09765 | 16.61031 | 1957 ft | 191 kts | 123° |
| 2026-05-06 13:02 | 48.09135 | 16.62870 | 2317 ft | 203 kts | 125° |
| 2026-05-06 13:02 | 48.08257 | 16.64569 | 2660 ft | 214 kts | 146° |
| 2026-05-06 13:02 | 48.06824 | 16.65361 | 2893 ft | 233 kts | 181° |
| 2026-05-06 13:03 | 48.05277 | 16.64581 | 3595 ft | 239 kts | 211° |
| 2026-05-06 13:03 | 48.04095 | 16.63308 | 4435 ft | 239 kts | 216° |
| 2026-05-06 13:03 | 48.03321 | 16.62361 | 4901 ft | 242 kts | 220° |
| 2026-05-06 13:04 | 48.02276 | 16.60357 | 5632 ft | 250 kts | 239° |
| 2026-05-06 13:04 | 48.01607 | 16.57918 | 6367 ft | 257 kts | 247° |
| 2026-05-06 13:04 | 48.01039 | 16.55385 | 7208 ft | 258 kts | 248° |
| 2026-05-06 13:04 | 48.00471 | 16.52820 | 7948 ft | 263 kts | 248° |
| 2026-05-06 13:05 | 47.99888 | 16.50232 | 8805 ft | 263 kts | 248° |
| 2026-05-06 13:05 | 47.99299 | 16.47652 | 9673 ft | 264 kts | 248° |
| 2026-05-06 13:05 | 47.98696 | 16.45033 | 10329 ft | 271 kts | 248° |
| 2026-05-06 13:05 | 47.98053 | 16.42271 | 10653 ft | 291 kts | 248° |
| 2026-05-06 13:06 | 47.97366 | 16.39328 | 10943 ft | 309 kts | 248° |
| 2026-05-06 13:06 | 47.96649 | 16.36255 | 11499 ft | 317 kts | 249° |
| 2026-05-06 13:06 | 47.95920 | 16.33130 | 12177 ft | 321 kts | 249° |
| 2026-05-06 13:06 | 47.95183 | 16.29976 | 12892 ft | 324 kts | 249° |
| 2026-05-06 13:07 | 47.94434 | 16.26777 | 13519 ft | 329 kts | 249° |
| 2026-05-06 13:07 | 47.93684 | 16.23584 | 14128 ft | 331 kts | 249° |
| 2026-05-06 13:07 | 47.92918 | 16.20324 | 14732 ft | 334 kts | 249° |
| 2026-05-06 13:07 | 47.92146 | 16.17045 | 15315 ft | 337 kts | 249° |
| 2026-05-06 13:08 | 47.91363 | 16.13727 | 15915 ft | 340 kts | 249° |
| 2026-05-06 13:08 | 47.90575 | 16.10390 | 16482 ft | 342 kts | 249° |
| 2026-05-06 13:08 | 47.89781 | 16.07033 | 17049 ft | 346 kts | 249° |
| 2026-05-06 13:08 | 47.88975 | 16.03637 | 17534 ft | 349 kts | 249° |
| 2026-05-06 13:09 | 47.88124 | 16.00240 | 18087 ft | 351 kts | 245° |
| 2026-05-06 13:09 | 47.86964 | 15.97045 | 18603 ft | 352 kts | 235° |
| 2026-05-06 13:09 | 47.86509 | 15.96116 | 18764 ft | 352 kts | 231° |
| 2026-05-06 13:09 | 47.85186 | 15.94007 | 19170 ft | 352 kts | 222° |
| 2026-05-06 13:10 | 47.83311 | 15.91718 | 19583 ft | 355 kts | 218° |
| 2026-05-06 13:10 | 47.81329 | 15.89486 | 19972 ft | 358 kts | 218° |
| 2026-05-06 13:10 | 47.79322 | 15.87246 | 20410 ft | 361 kts | 218° |
| 2026-05-06 13:10 | 47.77308 | 15.84993 | 20873 ft | 362 kts | 218° |
| 2026-05-06 13:11 | 47.75290 | 15.82727 | 21305 ft | 366 kts | 218° |
| 2026-05-06 13:11 | 47.73255 | 15.80435 | 21814 ft | 366 kts | 218° |
| 2026-05-06 13:11 | 47.71247 | 15.78178 | 22264 ft | 367 kts | 218° |
| 2026-05-06 13:11 | 47.69205 | 15.75883 | 22695 ft | 369 kts | 218° |
| 2026-05-06 13:12 | 47.67147 | 15.73571 | 23071 ft | 372 kts | 218° |
| 2026-05-06 13:12 | 47.65079 | 15.71251 | 23494 ft | 373 kts | 218° |
| 2026-05-06 13:12 | 47.62999 | 15.68918 | 23885 ft | 375 kts | 218° |
| 2026-05-06 13:12 | 47.61142 | 15.66836 | 24284 ft | 374 kts | 218° |
| 2026-05-06 13:13 | 47.59050 | 15.64493 | 24645 ft | 376 kts | 218° |
| 2026-05-06 13:13 | 47.56957 | 15.62152 | 25031 ft | 377 kts | 218° |
| 2026-05-06 13:13 | 47.54873 | 15.59822 | 25363 ft | 379 kts | 218° |
| 2026-05-06 13:13 | 47.52767 | 15.57450 | 25679 ft | 381 kts | 220° |
| 2026-05-06 13:14 | 47.50794 | 15.54819 | 26024 ft | 382 kts | 227° |
| 2026-05-06 13:14 | 47.49122 | 15.51760 | 26387 ft | 383 kts | 236° |
| 2026-05-06 13:14 | 47.47819 | 15.48305 | 26739 ft | 386 kts | 245° |
| 2026-05-06 13:14 | 47.46877 | 15.44581 | 27049 ft | 389 kts | 250° |
| 2026-05-06 13:15 | 47.46072 | 15.40755 | 27387 ft | 390 kts | 251° |
| 2026-05-06 13:15 | 47.45337 | 15.36934 | 27727 ft | 391 kts | 252° |
| 2026-05-06 13:15 | 47.44614 | 15.33054 | 28063 ft | 393 kts | 252° |
| 2026-05-06 13:15 | 47.43887 | 15.29150 | 28332 ft | 395 kts | 252° |
| 2026-05-06 13:16 | 47.43145 | 15.25220 | 28613 ft | 397 kts | 252° |
| 2026-05-06 13:16 | 47.42386 | 15.21269 | 28923 ft | 398 kts | 252° |
| 2026-05-06 13:16 | 47.41620 | 15.17330 | 29261 ft | 399 kts | 252° |
| 2026-05-06 13:16 | 47.40844 | 15.13387 | 29605 ft | 400 kts | 252° |
| 2026-05-06 13:17 | 47.40062 | 15.09428 | 29867 ft | 403 kts | 251° |
| 2026-05-06 13:17 | 47.39269 | 15.05439 | 30100 ft | 406 kts | 251° |
| 2026-05-06 13:17 | 47.38474 | 15.01444 | 30415 ft | 406 kts | 251° |
| 2026-05-06 13:17 | 47.37678 | 14.97446 | 30755 ft | 406 kts | 251° |
| 2026-05-06 13:18 | 47.36891 | 14.93505 | 31059 ft | 405 kts | 251° |
| 2026-05-06 13:18 | 47.36083 | 14.89459 | 31327 ft | 406 kts | 251° |
| 2026-05-06 13:18 | 47.35292 | 14.85507 | 31591 ft | 407 kts | 251° |
| 2026-05-06 13:18 | 47.34487 | 14.81494 | 31844 ft | 408 kts | 251° |
| 2026-05-06 13:19 | 47.33681 | 14.77487 | 32134 ft | 408 kts | 251° |
| 2026-05-06 13:19 | 47.32875 | 14.73478 | 32543 ft | 406 kts | 251° |
| 2026-05-06 13:19 | 47.32074 | 14.69502 | 33048 ft | 402 kts | 251° |
| 2026-05-06 13:19 | 47.31284 | 14.65585 | 33558 ft | 397 kts | 251° |
| 2026-05-06 13:20 | 47.30498 | 14.61702 | 34015 ft | 393 kts | 251° |
| 2026-05-06 13:20 | 47.29714 | 14.57838 | 34276 ft | 393 kts | 251° |
| 2026-05-06 13:20 | 47.28936 | 14.54024 | 34364 ft | 395 kts | 251° |
| 2026-05-06 13:20 | 47.28144 | 14.50139 | 34528 ft | 398 kts | 251° |
| 2026-05-06 13:21 | 47.27337 | 14.46187 | 34678 ft | 399 kts | 251° |
| 2026-05-06 13:21 | 47.26546 | 14.42319 | 34840 ft | 400 kts | 251° |
| 2026-05-06 13:21 | 47.25743 | 14.38397 | 35104 ft | 399 kts | 251° |
| 2026-05-06 13:21 | 47.24942 | 14.34491 | 35362 ft | 399 kts | 251° |
| 2026-05-06 13:22 | 47.24138 | 14.30582 | 35605 ft | 399 kts | 251° |
| 2026-05-06 13:22 | 47.23332 | 14.26673 | 35798 ft | 400 kts | 251° |
| 2026-05-06 13:22 | 47.22523 | 14.22759 | 36020 ft | 400 kts | 251° |
| 2026-05-06 13:22 | 47.21708 | 14.18829 | 36225 ft | 401 kts | 251° |
| 2026-05-06 13:23 | 47.20895 | 14.14911 | 36486 ft | 400 kts | 250° |
| 2026-05-06 13:23 | 47.20082 | 14.11004 | 36773 ft | 399 kts | 250° |
| 2026-05-06 13:23 | 47.19272 | 14.07113 | 37015 ft | 398 kts | 250° |
| 2026-05-06 13:23 | 47.18456 | 14.03208 | 37170 ft | 400 kts | 250° |
| 2026-05-06 13:24 | 47.17647 | 13.99344 | 37323 ft | 401 kts | 250° |
| 2026-05-06 13:24 | 47.15997 | 13.91479 | 37611 ft | 402 kts | 251° |
| 2026-05-06 13:24 | 47.15167 | 13.87537 | 37740 ft | 404 kts | 251° |
| 2026-05-06 13:25 | 47.14331 | 13.83578 | 37882 ft | 406 kts | 251° |
| 2026-05-06 13:25 | 47.13496 | 13.79623 | 38075 ft | 406 kts | 251° |
| 2026-05-06 13:25 | 47.12655 | 13.75651 | 38250 ft | 407 kts | 251° |
| 2026-05-06 13:25 | 47.11813 | 13.71679 | 38430 ft | 407 kts | 251° |
| 2026-05-06 13:26 | 47.10970 | 13.67708 | 38576 ft | 408 kts | 251° |
| 2026-05-06 13:26 | 47.09268 | 13.59724 | 38793 ft | 411 kts | 251° |
| 2026-05-06 13:26 | 47.08421 | 13.55761 | 38943 ft | 411 kts | 251° |
| 2026-05-06 13:27 | 47.07566 | 13.51773 | 39125 ft | 409 kts | 251° |
| 2026-05-06 13:27 | 47.05844 | 13.43761 | 39212 ft | 414 kts | 251° |
| 2026-05-06 13:28 | 47.04105 | 13.35699 | 39467 ft | 414 kts | 251° |
| 2026-05-06 13:28 | 47.02363 | 13.27642 | 39702 ft | 414 kts | 251° |
| 2026-05-06 13:29 | 47.00600 | 13.19535 | 39788 ft | 419 kts | 251° |
| 2026-05-06 13:29 | 46.98828 | 13.11414 | 39859 ft | 421 kts | 250° |
| 2026-05-06 13:30 | 46.97037 | 13.03239 | 39841 ft | 421 kts | 250° |
| 2026-05-06 13:30 | 46.95239 | 12.95050 | 39859 ft | 422 kts | 250° |
| 2026-05-06 13:31 | 46.93447 | 12.86940 | 39852 ft | 421 kts | 250° |
| 2026-05-06 13:31 | 46.91636 | 12.78778 | 39855 ft | 421 kts | 250° |
| 2026-05-06 13:32 | 46.89822 | 12.70609 | 39857 ft | 421 kts | 250° |
| 2026-05-06 13:32 | 46.88016 | 12.62522 | 39850 ft | 420 kts | 250° |
| 2026-05-06 13:33 | 46.86198 | 12.54415 | 39868 ft | 419 kts | 250° |
| 2026-05-06 13:33 | 46.84374 | 12.46312 | 39880 ft | 420 kts | 250° |
| 2026-05-06 13:34 | 46.82544 | 12.38207 | 39899 ft | 420 kts | 250° |
| 2026-05-06 13:34 | 46.80534 | 12.30226 | 39911 ft | 418 kts | 243° |
| 2026-05-06 13:35 | 46.77362 | 12.23136 | 39914 ft | 418 kts | 231° |
| 2026-05-06 13:35 | 46.73658 | 12.16596 | 39840 ft | 419 kts | 229° |
| 2026-05-06 13:36 | 46.69859 | 12.10171 | 39847 ft | 418 kts | 229° |
| 2026-05-06 13:36 | 46.66099 | 12.03808 | 39854 ft | 417 kts | 229° |
| 2026-05-06 13:37 | 46.62327 | 11.97394 | 39859 ft | 417 kts | 229° |
| 2026-05-06 13:37 | 46.58554 | 11.90973 | 39865 ft | 417 kts | 229° |
| 2026-05-06 13:38 | 46.54781 | 11.84560 | 39864 ft | 417 kts | 229° |
| 2026-05-06 13:38 | 46.51014 | 11.78176 | 39874 ft | 416 kts | 229° |
| 2026-05-06 13:39 | 46.47256 | 11.71822 | 39865 ft | 416 kts | 229° |
| 2026-05-06 13:39 | 46.43486 | 11.65462 | 39868 ft | 416 kts | 229° |
| 2026-05-06 13:40 | 46.39711 | 11.59109 | 39875 ft | 416 kts | 229° |
| 2026-05-06 13:40 | 46.35948 | 11.52793 | 39886 ft | 416 kts | 229° |
| 2026-05-06 13:41 | 46.32174 | 11.46471 | 39887 ft | 414 kts | 229° |
| 2026-05-06 13:41 | 46.28401 | 11.40163 | 39878 ft | 414 kts | 229° |
| 2026-05-06 13:42 | 46.24690 | 11.33803 | 39878 ft | 414 kts | 231° |
| 2026-05-06 13:42 | 46.21200 | 11.27175 | 39883 ft | 414 kts | 233° |
| 2026-05-06 13:43 | 46.17786 | 11.20535 | 39967 ft | 414 kts | 233° |
| 2026-05-06 13:43 | 46.14332 | 11.13880 | 39944 ft | 414 kts | 232° |
| 2026-05-06 13:44 | 46.10856 | 11.07249 | 39925 ft | 414 kts | 232° |
| 2026-05-06 13:44 | 46.07364 | 11.00626 | 39915 ft | 414 kts | 232° |
| 2026-05-06 13:45 | 46.03891 | 10.94052 | 39894 ft | 414 kts | 232° |
| 2026-05-06 13:45 | 45.98661 | 10.84178 | 39888 ft | 413 kts | 232° |
| 2026-05-06 13:46 | 45.95174 | 10.77615 | 39879 ft | 413 kts | 232° |
| 2026-05-06 13:46 | 45.91679 | 10.71051 | 39904 ft | 413 kts | 232° |
| 2026-05-06 13:47 | 45.88169 | 10.64476 | 39886 ft | 414 kts | 232° |
| 2026-05-06 13:47 | 45.84682 | 10.57953 | 39891 ft | 414 kts | 232° |
| 2026-05-06 13:48 | 45.81179 | 10.51420 | 39885 ft | 412 kts | 232° |
| 2026-05-06 13:48 | 45.77679 | 10.44911 | 39883 ft | 412 kts | 232° |
| 2026-05-06 13:49 | 45.74169 | 10.38397 | 39881 ft | 412 kts | 232° |
| 2026-05-06 13:49 | 45.70666 | 10.31906 | 39876 ft | 412 kts | 232° |
| 2026-05-06 13:50 | 45.67190 | 10.25479 | 39861 ft | 410 kts | 232° |
| 2026-05-06 13:50 | 45.63695 | 10.19035 | 39874 ft | 409 kts | 231° |
| 2026-05-06 13:51 | 45.60204 | 10.12615 | 39864 ft | 409 kts | 231° |
| 2026-05-06 13:51 | 45.56705 | 10.06192 | 39855 ft | 409 kts | 231° |
| 2026-05-06 13:52 | 45.53794 | 10.00861 | 39854 ft | 409 kts | 231° |
| 2026-05-06 13:52 | 45.50296 | 9.94467 | 39855 ft | 408 kts | 231° |
| 2026-05-06 13:53 | 45.46803 | 9.88094 | 39850 ft | 407 kts | 231° |
| 2026-05-06 13:53 | 45.43310 | 9.81738 | 39941 ft | 407 kts | 231° |
| 2026-05-06 13:54 | 45.39812 | 9.75387 | 39952 ft | 407 kts | 231° |
| 2026-05-06 13:54 | 45.36312 | 9.69045 | 39957 ft | 408 kts | 231° |
| 2026-05-06 13:55 | 45.32813 | 9.62721 | 39941 ft | 410 kts | 231° |
| 2026-05-06 13:55 | 45.29277 | 9.56344 | 39915 ft | 410 kts | 231° |
| 2026-05-06 13:56 | 45.25746 | 9.49987 | 39886 ft | 410 kts | 231° |
| 2026-05-06 13:56 | 45.22206 | 9.43631 | 39844 ft | 410 kts | 231° |
| 2026-05-06 13:57 | 45.18669 | 9.37294 | 39813 ft | 410 kts | 231° |
| 2026-05-06 13:57 | 45.15156 | 9.31016 | 39820 ft | 410 kts | 231° |
| 2026-05-06 13:58 | 45.11605 | 9.24682 | 39820 ft | 410 kts | 231° |
| 2026-05-06 13:58 | 45.08045 | 9.18346 | 39820 ft | 411 kts | 231° |